sensor_id;sensor_type;location;lat;lon;timestamp;P1;durP1;ratioP1;P2;durP2;ratioP2
40541;SDS011;49288;52.194;5.676;2023-01-23T00:02:13;50.55;;;19.20;;
40541;SDS011;49288;52.194;5.676;2023-01-23T00:07:15;44.83;;;18.83;;
40541;SDS011;49288;52.194;5.676;2023-01-23T00:12:18;38.88;;;15.07;;
40541;SDS011;49288;52.194;5.676;2023-01-23T00:17:20;54.17;;;17.30;;
40541;SDS011;49288;52.194;5.676;2023-01-23T00:22:23;62.40;;;20.38;;
40541;SDS011;49288;52.194;5.676;2023-01-23T00:32:32;45.28;;;18.98;;
40541;SDS011;49288;52.194;5.676;2023-01-23T00:42:39;54.55;;;20.13;;
40541;SDS011;49288;52.194;5.676;2023-01-23T00:47:42;62.75;;;22.20;;
40541;SDS011;49288;52.194;5.676;2023-01-23T00:52:46;71.50;;;21.85;;
40541;SDS011;49288;52.194;5.676;2023-01-23T00:57:49;71.93;;;21.40;;
40541;SDS011;49288;52.194;5.676;2023-01-23T01:02:52;66.40;;;20.98;;
40541;SDS011;49288;52.194;5.676;2023-01-23T01:07:55;74.55;;;23.77;;
40541;SDS011;49288;52.194;5.676;2023-01-23T01:12:58;72.75;;;23.30;;
40541;SDS011;49288;52.194;5.676;2023-01-23T01:18:02;68.15;;;23.27;;
40541;SDS011;49288;52.194;5.676;2023-01-23T01:23:05;89.25;;;25.67;;
40541;SDS011;49288;52.194;5.676;2023-01-23T01:28:08;82.28;;;23.58;;
40541;SDS011;49288;52.194;5.676;2023-01-23T01:33:29;80.20;;;23.83;;
40541;SDS011;49288;52.194;5.676;2023-01-23T01:38:33;93.93;;;27.03;;
40541;SDS011;49288;52.194;5.676;2023-01-23T01:43:37;85.97;;;24.48;;
40541;SDS011;49288;52.194;5.676;2023-01-23T01:48:43;82.30;;;24.88;;
40541;SDS011;49288;52.194;5.676;2023-01-23T01:53:54;66.30;;;22.20;;
40541;SDS011;49288;52.194;5.676;2023-01-23T01:59:01;76.95;;;26.17;;
40541;SDS011;49288;52.194;5.676;2023-01-23T02:04:05;73.95;;;24.35;;
40541;SDS011;49288;52.194;5.676;2023-01-23T02:14:36;84.32;;;26.30;;
40541;SDS011;49288;52.194;5.676;2023-01-23T02:30:24;75.95;;;24.58;;
40541;SDS011;49288;52.194;5.676;2023-01-23T02:35:29;78.32;;;25.65;;
40541;SDS011;49288;52.194;5.676;2023-01-23T02:40:40;86.10;;;26.35;;
40541;SDS011;49288;52.194;5.676;2023-01-23T02:45:52;70.50;;;23.55;;
40541;SDS011;49288;52.194;5.676;2023-01-23T02:50:55;100.38;;;27.70;;
40541;SDS011;49288;52.194;5.676;2023-01-23T02:55:58;70.90;;;22.83;;
40541;SDS011;49288;52.194;5.676;2023-01-23T03:01:02;65.90;;;21.83;;
40541;SDS011;49288;52.194;5.676;2023-01-23T03:06:05;77.97;;;24.48;;
40541;SDS011;49288;52.194;5.676;2023-01-23T03:11:08;81.35;;;24.00;;
40541;SDS011;49288;52.194;5.676;2023-01-23T03:16:11;83.50;;;25.23;;
40541;SDS011;49288;52.194;5.676;2023-01-23T03:21:14;86.30;;;28.13;;
40541;SDS011;49288;52.194;5.676;2023-01-23T03:26:17;85.75;;;26.83;;
40541;SDS011;49288;52.194;5.676;2023-01-23T03:31:21;94.47;;;26.67;;
40541;SDS011;49288;52.194;5.676;2023-01-23T03:36:24;102.10;;;27.80;;
40541;SDS011;49288;52.194;5.676;2023-01-23T03:41:27;85.00;;;26.60;;
40541;SDS011;49288;52.194;5.676;2023-01-23T03:46:36;93.10;;;27.08;;
40541;SDS011;49288;52.194;5.676;2023-01-23T03:51:39;88.13;;;26.67;;
40541;SDS011;49288;52.194;5.676;2023-01-23T03:56:42;83.13;;;26.48;;
40541;SDS011;49288;52.194;5.676;2023-01-23T04:01:59;103.10;;;29.73;;
40541;SDS011;49288;52.194;5.676;2023-01-23T04:07:07;94.32;;;25.73;;
40541;SDS011;49288;52.194;5.676;2023-01-23T04:12:13;77.75;;;25.05;;
40541;SDS011;49288;52.194;5.676;2023-01-23T04:17:20;86.80;;;26.55;;
40541;SDS011;49288;52.194;5.676;2023-01-23T04:22:23;86.13;;;26.85;;
40541;SDS011;49288;52.194;5.676;2023-01-23T04:27:27;84.53;;;24.80;;
40541;SDS011;49288;52.194;5.676;2023-01-23T04:32:31;91.07;;;28.45;;
40541;SDS011;49288;52.194;5.676;2023-01-23T04:37:34;98.47;;;27.25;;
40541;SDS011;49288;52.194;5.676;2023-01-23T04:42:36;94.93;;;27.65;;
40541;SDS011;49288;52.194;5.676;2023-01-23T04:47:45;93.07;;;25.15;;
40541;SDS011;49288;52.194;5.676;2023-01-23T04:52:49;92.93;;;27.23;;
40541;SDS011;49288;52.194;5.676;2023-01-23T04:57:53;100.83;;;28.83;;
40541;SDS011;49288;52.194;5.676;2023-01-23T05:02:59;116.60;;;29.83;;
40541;SDS011;49288;52.194;5.676;2023-01-23T05:08:05;75.20;;;21.15;;
40541;SDS011;49288;52.194;5.676;2023-01-23T05:13:09;98.20;;;29.77;;
40541;SDS011;49288;52.194;5.676;2023-01-23T05:18:14;88.57;;;28.08;;
40541;SDS011;49288;52.194;5.676;2023-01-23T05:23:16;93.93;;;28.52;;
40541;SDS011;49288;52.194;5.676;2023-01-23T05:28:23;103.47;;;28.98;;
40541;SDS011;49288;52.194;5.676;2023-01-23T05:33:29;120.32;;;32.45;;
40541;SDS011;49288;52.194;5.676;2023-01-23T05:38:33;102.15;;;30.33;;
40541;SDS011;49288;52.194;5.676;2023-01-23T05:43:36;103.85;;;27.10;;
40541;SDS011;49288;52.194;5.676;2023-01-23T05:49:11;94.80;;;28.27;;
40541;SDS011;49288;52.194;5.676;2023-01-23T05:54:14;96.40;;;26.92;;
40541;SDS011;49288;52.194;5.676;2023-01-23T05:59:38;119.37;;;36.17;;
40541;SDS011;49288;52.194;5.676;2023-01-23T06:05:03;91.68;;;27.67;;
40541;SDS011;49288;52.194;5.676;2023-01-23T06:10:27;79.93;;;24.87;;
40541;SDS011;49288;52.194;5.676;2023-01-23T06:15:30;91.75;;;26.95;;
40541;SDS011;49288;52.194;5.676;2023-01-23T06:20:39;100.68;;;28.92;;
40541;SDS011;49288;52.194;5.676;2023-01-23T06:25:44;102.60;;;28.83;;
40541;SDS011;49288;52.194;5.676;2023-01-23T06:30:47;103.65;;;28.70;;
40541;SDS011;49288;52.194;5.676;2023-01-23T06:36:01;92.53;;;26.38;;
40541;SDS011;49288;52.194;5.676;2023-01-23T06:41:08;100.03;;;28.23;;
40541;SDS011;49288;52.194;5.676;2023-01-23T06:46:14;81.43;;;25.17;;
40541;SDS011;49288;52.194;5.676;2023-01-23T06:51:17;78.65;;;28.02;;
40541;SDS011;49288;52.194;5.676;2023-01-23T06:56:21;83.68;;;26.35;;
40541;SDS011;49288;52.194;5.676;2023-01-23T07:01:31;92.63;;;30.45;;
40541;SDS011;49288;52.194;5.676;2023-01-23T07:06:52;104.40;;;30.10;;
40541;SDS011;49288;52.194;5.676;2023-01-23T07:11:56;92.72;;;28.92;;
40541;SDS011;49288;52.194;5.676;2023-01-23T07:17:02;98.70;;;30.02;;
40541;SDS011;49288;52.194;5.676;2023-01-23T07:22:05;105.85;;;28.85;;
40541;SDS011;49288;52.194;5.676;2023-01-23T07:27:08;100.72;;;28.98;;
40541;SDS011;49288;52.194;5.676;2023-01-23T07:32:11;98.63;;;28.05;;
40541;SDS011;49288;52.194;5.676;2023-01-23T07:37:15;102.33;;;28.20;;
40541;SDS011;49288;52.194;5.676;2023-01-23T07:42:17;119.53;;;35.38;;
40541;SDS011;49288;52.194;5.676;2023-01-23T07:47:22;114.75;;;31.77;;
40541;SDS011;49288;52.194;5.676;2023-01-23T07:52:24;113.97;;;31.35;;
40541;SDS011;49288;52.194;5.676;2023-01-23T07:57:28;113.40;;;30.85;;
40541;SDS011;49288;52.194;5.676;2023-01-23T08:02:30;121.40;;;32.90;;
40541;SDS011;49288;52.194;5.676;2023-01-23T08:07:33;121.70;;;34.00;;
40541;SDS011;49288;52.194;5.676;2023-01-23T08:12:54;104.75;;;31.13;;
40541;SDS011;49288;52.194;5.676;2023-01-23T08:17:57;144.90;;;37.42;;
40541;SDS011;49288;52.194;5.676;2023-01-23T08:23:00;135.90;;;36.28;;
40541;SDS011;49288;52.194;5.676;2023-01-23T08:28:03;129.10;;;33.33;;
40541;SDS011;49288;52.194;5.676;2023-01-23T08:33:06;119.57;;;33.95;;
40541;SDS011;49288;52.194;5.676;2023-01-23T08:38:10;136.35;;;35.53;;
40541;SDS011;49288;52.194;5.676;2023-01-23T08:43:13;143.38;;;37.35;;
40541;SDS011;49288;52.194;5.676;2023-01-23T08:48:16;201.32;;;43.83;;
40541;SDS011;49288;52.194;5.676;2023-01-23T08:53:20;189.27;;;40.37;;
40541;SDS011;49288;52.194;5.676;2023-01-23T08:58:23;175.93;;;40.50;;
40541;SDS011;49288;52.194;5.676;2023-01-23T09:03:26;170.05;;;39.75;;
40541;SDS011;49288;52.194;5.676;2023-01-23T09:08:29;179.95;;;39.47;;
40541;SDS011;49288;52.194;5.676;2023-01-23T09:13:34;188.98;;;42.28;;
40541;SDS011;49288;52.194;5.676;2023-01-23T09:18:37;187.80;;;41.72;;
40541;SDS011;49288;52.194;5.676;2023-01-23T09:23:40;156.50;;;37.60;;
40541;SDS011;49288;52.194;5.676;2023-01-23T09:28:42;178.65;;;42.00;;
40541;SDS011;49288;52.194;5.676;2023-01-23T09:33:46;186.05;;;42.42;;
40541;SDS011;49288;52.194;5.676;2023-01-23T09:38:51;155.02;;;39.00;;
40541;SDS011;49288;52.194;5.676;2023-01-23T09:54:50;144.63;;;39.88;;
40541;SDS011;49288;52.194;5.676;2023-01-23T10:00:16;122.95;;;33.90;;
40541;SDS011;49288;52.194;5.676;2023-01-23T10:05:28;109.97;;;35.45;;
40541;SDS011;49288;52.194;5.676;2023-01-23T10:16:09;96.10;;;30.98;;
40541;SDS011;49288;52.194;5.676;2023-01-23T10:26:31;81.05;;;28.67;;
40541;SDS011;49288;52.194;5.676;2023-01-23T10:31:42;70.93;;;29.63;;
40541;SDS011;49288;52.194;5.676;2023-01-23T10:42:11;62.40;;;22.52;;
40541;SDS011;49288;52.194;5.676;2023-01-23T10:47:31;56.17;;;22.95;;
40541;SDS011;49288;52.194;5.676;2023-01-23T10:52:44;55.95;;;24.27;;
40541;SDS011;49288;52.194;5.676;2023-01-23T10:57:48;48.53;;;19.52;;
40541;SDS011;49288;52.194;5.676;2023-01-23T11:03:16;49.42;;;20.90;;
40541;SDS011;49288;52.194;5.676;2023-01-23T11:13:29;54.40;;;23.45;;
40541;SDS011;49288;52.194;5.676;2023-01-23T11:18:33;51.30;;;22.40;;
40541;SDS011;49288;52.194;5.676;2023-01-23T11:23:38;51.30;;;24.60;;
40541;SDS011;49288;52.194;5.676;2023-01-23T11:28:46;46.05;;;19.63;;
40541;SDS011;49288;52.194;5.676;2023-01-23T11:34:11;56.60;;;24.33;;
40541;SDS011;49288;52.194;5.676;2023-01-23T11:44:57;47.95;;;21.23;;
40541;SDS011;49288;52.194;5.676;2023-01-23T12:01:03;43.97;;;21.10;;
40541;SDS011;49288;52.194;5.676;2023-01-23T12:11:46;43.78;;;20.13;;
40541;SDS011;49288;52.194;5.676;2023-01-23T12:22:55;36.05;;;17.92;;
40541;SDS011;49288;52.194;5.676;2023-01-23T12:39:06;34.70;;;17.95;;
40541;SDS011;49288;52.194;5.676;2023-01-23T12:44:31;40.78;;;17.55;;
40541;SDS011;49288;52.194;5.676;2023-01-23T12:55:00;43.17;;;19.27;;
40541;SDS011;49288;52.194;5.676;2023-01-23T13:06:01;40.08;;;18.45;;
40541;SDS011;49288;52.194;5.676;2023-01-23T13:11:18;37.72;;;18.55;;
40541;SDS011;49288;52.194;5.676;2023-01-23T13:16:46;36.63;;;17.00;;
40541;SDS011;49288;52.194;5.676;2023-01-23T13:22:04;38.00;;;17.83;;
40541;SDS011;49288;52.194;5.676;2023-01-23T13:27:46;36.72;;;18.83;;
40541;SDS011;49288;52.194;5.676;2023-01-23T13:32:54;44.90;;;19.43;;
40541;SDS011;49288;52.194;5.676;2023-01-23T13:49:04;34.22;;;16.83;;
40541;SDS011;49288;52.194;5.676;2023-01-23T13:54:41;36.20;;;16.73;;
40541;SDS011;49288;52.194;5.676;2023-01-23T14:00:18;40.63;;;19.02;;
40541;SDS011;49288;52.194;5.676;2023-01-23T14:05:36;34.25;;;17.35;;
40541;SDS011;49288;52.194;5.676;2023-01-23T14:10:55;38.70;;;18.02;;
40541;SDS011;49288;52.194;5.676;2023-01-23T14:16:13;36.22;;;17.10;;
40541;SDS011;49288;52.194;5.676;2023-01-23T14:21:39;37.92;;;17.77;;
40541;SDS011;49288;52.194;5.676;2023-01-23T14:26:51;35.38;;;16.30;;
40541;SDS011;49288;52.194;5.676;2023-01-23T14:32:19;35.70;;;18.50;;
40541;SDS011;49288;52.194;5.676;2023-01-23T14:37:26;33.50;;;16.95;;
40541;SDS011;49288;52.194;5.676;2023-01-23T14:42:30;31.63;;;16.17;;
40541;SDS011;49288;52.194;5.676;2023-01-23T14:47:37;34.28;;;16.50;;
40541;SDS011;49288;52.194;5.676;2023-01-23T14:52:45;33.50;;;16.33;;
40541;SDS011;49288;52.194;5.676;2023-01-23T14:58:05;39.70;;;17.73;;
40541;SDS011;49288;52.194;5.676;2023-01-23T15:03:11;32.35;;;16.15;;
40541;SDS011;49288;52.194;5.676;2023-01-23T15:08:17;31.77;;;16.10;;
40541;SDS011;49288;52.194;5.676;2023-01-23T15:13:27;32.72;;;15.95;;
40541;SDS011;49288;52.194;5.676;2023-01-23T15:18:35;40.83;;;18.80;;
40541;SDS011;49288;52.194;5.676;2023-01-23T15:23:38;32.05;;;16.50;;
40541;SDS011;49288;52.194;5.676;2023-01-23T15:34:09;38.25;;;17.83;;
40541;SDS011;49288;52.194;5.676;2023-01-23T15:39:26;36.47;;;18.38;;
40541;SDS011;49288;52.194;5.676;2023-01-23T15:44:37;35.40;;;16.63;;
40541;SDS011;49288;52.194;5.676;2023-01-23T15:49:41;29.77;;;14.75;;
40541;SDS011;49288;52.194;5.676;2023-01-23T15:54:44;40.03;;;18.47;;
40541;SDS011;49288;52.194;5.676;2023-01-23T15:59:47;29.05;;;13.70;;
40541;SDS011;49288;52.194;5.676;2023-01-23T16:04:50;33.67;;;16.23;;
40541;SDS011;49288;52.194;5.676;2023-01-23T16:09:53;34.65;;;16.48;;
40541;SDS011;49288;52.194;5.676;2023-01-23T16:14:57;28.77;;;13.90;;
40541;SDS011;49288;52.194;5.676;2023-01-23T16:20:00;35.20;;;16.55;;
40541;SDS011;49288;52.194;5.676;2023-01-23T16:25:03;35.28;;;15.13;;
40541;SDS011;49288;52.194;5.676;2023-01-23T16:30:09;35.58;;;16.63;;
40541;SDS011;49288;52.194;5.676;2023-01-23T16:35:19;28.95;;;13.27;;
40541;SDS011;49288;52.194;5.676;2023-01-23T16:40:25;46.50;;;20.52;;
40541;SDS011;49288;52.194;5.676;2023-01-23T16:45:32;44.55;;;20.58;;
40541;SDS011;49288;52.194;5.676;2023-01-23T16:50:35;50.40;;;22.25;;
40541;SDS011;49288;52.194;5.676;2023-01-23T16:55:40;52.22;;;21.27;;
40541;SDS011;49288;52.194;5.676;2023-01-23T17:00:45;42.72;;;19.50;;
40541;SDS011;49288;52.194;5.676;2023-01-23T17:06:10;51.45;;;22.70;;
40541;SDS011;49288;52.194;5.676;2023-01-23T17:11:16;43.78;;;19.95;;
40541;SDS011;49288;52.194;5.676;2023-01-23T17:16:25;51.50;;;22.50;;
40541;SDS011;49288;52.194;5.676;2023-01-23T17:21:47;48.13;;;21.55;;
40541;SDS011;49288;52.194;5.676;2023-01-23T17:26:50;45.97;;;19.35;;
40541;SDS011;49288;52.194;5.676;2023-01-23T17:31:53;48.85;;;21.00;;
40541;SDS011;49288;52.194;5.676;2023-01-23T17:36:56;51.30;;;21.67;;
40541;SDS011;49288;52.194;5.676;2023-01-23T17:41:59;39.97;;;18.73;;
40541;SDS011;49288;52.194;5.676;2023-01-23T17:47:02;44.65;;;20.20;;
40541;SDS011;49288;52.194;5.676;2023-01-23T17:52:05;46.90;;;20.58;;
40541;SDS011;49288;52.194;5.676;2023-01-23T17:57:10;48.63;;;20.55;;
40541;SDS011;49288;52.194;5.676;2023-01-23T18:02:24;60.55;;;27.33;;
40541;SDS011;49288;52.194;5.676;2023-01-23T18:07:28;50.80;;;22.15;;
40541;SDS011;49288;52.194;5.676;2023-01-23T18:17:53;51.17;;;22.23;;
40541;SDS011;49288;52.194;5.676;2023-01-23T18:23:06;49.85;;;22.42;;
40541;SDS011;49288;52.194;5.676;2023-01-23T18:28:17;48.88;;;21.48;;
40541;SDS011;49288;52.194;5.676;2023-01-23T18:33:35;53.63;;;22.48;;
40541;SDS011;49288;52.194;5.676;2023-01-23T18:44:25;51.08;;;22.40;;
40541;SDS011;49288;52.194;5.676;2023-01-23T18:49:30;51.22;;;21.83;;
40541;SDS011;49288;52.194;5.676;2023-01-23T19:00:17;56.17;;;23.00;;
40541;SDS011;49288;52.194;5.676;2023-01-23T19:05:40;49.72;;;20.60;;
40541;SDS011;49288;52.194;5.676;2023-01-23T19:10:43;51.85;;;22.30;;
40541;SDS011;49288;52.194;5.676;2023-01-23T19:26:10;51.17;;;21.95;;
40541;SDS011;49288;52.194;5.676;2023-01-23T19:31:19;47.83;;;21.00;;
40541;SDS011;49288;52.194;5.676;2023-01-23T19:36:23;51.88;;;22.08;;
40541;SDS011;49288;52.194;5.676;2023-01-23T19:41:29;48.38;;;20.95;;
40541;SDS011;49288;52.194;5.676;2023-01-23T19:46:44;50.58;;;21.15;;
40541;SDS011;49288;52.194;5.676;2023-01-23T19:51:48;45.90;;;18.67;;
40541;SDS011;49288;52.194;5.676;2023-01-23T19:56:50;51.80;;;21.85;;
40541;SDS011;49288;52.194;5.676;2023-01-23T20:01:53;54.03;;;23.35;;
40541;SDS011;49288;52.194;5.676;2023-01-23T20:06:56;52.30;;;21.70;;
40541;SDS011;49288;52.194;5.676;2023-01-23T20:11:59;45.60;;;20.25;;
40541;SDS011;49288;52.194;5.676;2023-01-23T20:17:02;50.47;;;21.58;;
40541;SDS011;49288;52.194;5.676;2023-01-23T20:22:05;53.88;;;22.35;;
40541;SDS011;49288;52.194;5.676;2023-01-23T20:27:09;49.50;;;21.07;;
40541;SDS011;49288;52.194;5.676;2023-01-23T20:32:11;55.17;;;22.35;;
40541;SDS011;49288;52.194;5.676;2023-01-23T20:37:14;60.47;;;25.27;;
40541;SDS011;49288;52.194;5.676;2023-01-23T20:42:18;50.80;;;21.75;;
40541;SDS011;49288;52.194;5.676;2023-01-23T20:47:21;52.70;;;23.27;;
40541;SDS011;49288;52.194;5.676;2023-01-23T20:52:25;54.92;;;22.73;;
40541;SDS011;49288;52.194;5.676;2023-01-23T20:57:46;72.18;;;29.13;;
40541;SDS011;49288;52.194;5.676;2023-01-23T21:03:07;73.10;;;29.13;;
40541;SDS011;49288;52.194;5.676;2023-01-23T21:08:09;74.53;;;31.15;;
40541;SDS011;49288;52.194;5.676;2023-01-23T21:13:13;52.75;;;22.55;;
40541;SDS011;49288;52.194;5.676;2023-01-23T21:18:18;50.45;;;20.15;;
40541;SDS011;49288;52.194;5.676;2023-01-23T21:23:21;49.05;;;21.85;;
40541;SDS011;49288;52.194;5.676;2023-01-23T21:28:24;44.15;;;19.65;;
40541;SDS011;49288;52.194;5.676;2023-01-23T21:33:27;50.40;;;21.40;;
40541;SDS011;49288;52.194;5.676;2023-01-23T21:38:30;47.10;;;18.70;;
40541;SDS011;49288;52.194;5.676;2023-01-23T21:43:33;49.78;;;20.75;;
40541;SDS011;49288;52.194;5.676;2023-01-23T21:48:36;44.40;;;19.27;;
40541;SDS011;49288;52.194;5.676;2023-01-23T21:53:40;55.67;;;23.40;;
40541;SDS011;49288;52.194;5.676;2023-01-23T21:58:44;46.50;;;21.33;;
40541;SDS011;49288;52.194;5.676;2023-01-23T22:03:49;45.13;;;20.38;;
40541;SDS011;49288;52.194;5.676;2023-01-23T22:08:52;47.65;;;21.38;;
40541;SDS011;49288;52.194;5.676;2023-01-23T22:13:55;48.47;;;22.10;;
40541;SDS011;49288;52.194;5.676;2023-01-23T22:18:58;46.20;;;20.52;;
40541;SDS011;49288;52.194;5.676;2023-01-23T22:24:00;41.35;;;18.58;;
40541;SDS011;49288;52.194;5.676;2023-01-23T22:29:03;46.45;;;20.02;;
40541;SDS011;49288;52.194;5.676;2023-01-23T22:34:06;42.60;;;20.63;;
40541;SDS011;49288;52.194;5.676;2023-01-23T22:39:08;43.00;;;18.60;;
40541;SDS011;49288;52.194;5.676;2023-01-23T22:44:16;40.00;;;20.27;;
40541;SDS011;49288;52.194;5.676;2023-01-23T22:49:20;42.25;;;19.50;;
40541;SDS011;49288;52.194;5.676;2023-01-23T22:54:25;39.03;;;17.92;;
40541;SDS011;49288;52.194;5.676;2023-01-23T22:59:28;37.33;;;18.17;;
40541;SDS011;49288;52.194;5.676;2023-01-23T23:04:31;40.72;;;16.67;;
40541;SDS011;49288;52.194;5.676;2023-01-23T23:09:35;39.13;;;18.47;;
40541;SDS011;49288;52.194;5.676;2023-01-23T23:14:37;41.30;;;18.00;;
40541;SDS011;49288;52.194;5.676;2023-01-23T23:19:40;41.10;;;18.85;;
40541;SDS011;49288;52.194;5.676;2023-01-23T23:24:43;40.80;;;18.48;;
40541;SDS011;49288;52.194;5.676;2023-01-23T23:29:45;43.92;;;18.67;;
40541;SDS011;49288;52.194;5.676;2023-01-23T23:34:48;43.53;;;18.95;;
40541;SDS011;49288;52.194;5.676;2023-01-23T23:39:51;38.33;;;18.08;;
40541;SDS011;49288;52.194;5.676;2023-01-23T23:44:54;42.65;;;18.38;;
40541;SDS011;49288;52.194;5.676;2023-01-23T23:49:59;38.00;;;17.63;;
40541;SDS011;49288;52.194;5.676;2023-01-23T23:55:02;41.40;;;19.63;;
